sensor_id;sensor_type;location;lat;lon;timestamp;P1;durP1;ratioP1;P2;durP2;ratioP2
43580;SDS011;29175;51.030;4.606;2023-06-14T00:00:38;14.18;;;7.57;;
43580;SDS011;29175;51.030;4.606;2023-06-14T00:03:09;18.92;;;7.38;;
43580;SDS011;29175;51.030;4.606;2023-06-14T00:05:37;15.77;;;7.70;;
43580;SDS011;29175;51.030;4.606;2023-06-14T00:08:08;20.60;;;7.70;;
43580;SDS011;29175;51.030;4.606;2023-06-14T00:10:35;20.15;;;7.55;;
43580;SDS011;29175;51.030;4.606;2023-06-14T00:13:01;13.25;;;6.88;;
43580;SDS011;29175;51.030;4.606;2023-06-14T00:15:29;13.10;;;7.20;;
43580;SDS011;29175;51.030;4.606;2023-06-14T00:17:56;15.90;;;7.85;;
43580;SDS011;29175;51.030;4.606;2023-06-14T00:20:28;16.65;;;8.00;;
43580;SDS011;29175;51.030;4.606;2023-06-14T00:22:59;16.95;;;7.60;;
43580;SDS011;29175;51.030;4.606;2023-06-14T00:25:25;14.60;;;7.22;;
43580;SDS011;29175;51.030;4.606;2023-06-14T00:27:51;21.92;;;8.30;;
43580;SDS011;29175;51.030;4.606;2023-06-14T00:30:17;17.42;;;7.82;;
43580;SDS011;29175;51.030;4.606;2023-06-14T00:32:44;16.48;;;7.47;;
43580;SDS011;29175;51.030;4.606;2023-06-14T00:35:10;14.95;;;7.95;;
43580;SDS011;29175;51.030;4.606;2023-06-14T00:37:36;16.60;;;7.75;;
43580;SDS011;29175;51.030;4.606;2023-06-14T00:40:02;13.98;;;7.88;;
43580;SDS011;29175;51.030;4.606;2023-06-14T00:42:29;17.85;;;8.20;;
43580;SDS011;29175;51.030;4.606;2023-06-14T00:44:55;22.42;;;8.13;;
43580;SDS011;29175;51.030;4.606;2023-06-14T00:47:21;13.80;;;7.65;;
43580;SDS011;29175;51.030;4.606;2023-06-14T00:49:47;18.85;;;7.93;;
43580;SDS011;29175;51.030;4.606;2023-06-14T00:52:15;18.50;;;8.13;;
43580;SDS011;29175;51.030;4.606;2023-06-14T00:54:41;16.90;;;7.97;;
43580;SDS011;29175;51.030;4.606;2023-06-14T00:57:08;21.45;;;7.95;;
43580;SDS011;29175;51.030;4.606;2023-06-14T00:59:37;16.85;;;7.95;;
43580;SDS011;29175;51.030;4.606;2023-06-14T01:02:07;16.70;;;7.93;;
43580;SDS011;29175;51.030;4.606;2023-06-14T01:04:33;17.63;;;7.47;;
43580;SDS011;29175;51.030;4.606;2023-06-14T01:07:02;19.75;;;7.90;;
43580;SDS011;29175;51.030;4.606;2023-06-14T01:12:35;19.17;;;8.35;;
43580;SDS011;29175;51.030;4.606;2023-06-14T01:15:11;13.60;;;7.80;;
43580;SDS011;29175;51.030;4.606;2023-06-14T01:17:38;15.77;;;8.50;;
43580;SDS011;29175;51.030;4.606;2023-06-14T01:20:08;17.05;;;8.55;;
43580;SDS011;29175;51.030;4.606;2023-06-14T01:22:48;16.77;;;8.50;;
43580;SDS011;29175;51.030;4.606;2023-06-14T01:25:16;23.60;;;9.15;;
43580;SDS011;29175;51.030;4.606;2023-06-14T01:27:46;19.55;;;8.63;;
43580;SDS011;29175;51.030;4.606;2023-06-14T01:30:13;17.52;;;8.32;;
43580;SDS011;29175;51.030;4.606;2023-06-14T01:32:39;18.77;;;9.27;;
43580;SDS011;29175;51.030;4.606;2023-06-14T01:35:06;22.73;;;8.98;;
43580;SDS011;29175;51.030;4.606;2023-06-14T01:37:32;16.00;;;8.45;;
43580;SDS011;29175;51.030;4.606;2023-06-14T01:39:59;13.82;;;8.20;;
43580;SDS011;29175;51.030;4.606;2023-06-14T01:42:25;15.25;;;8.15;;
43580;SDS011;29175;51.030;4.606;2023-06-14T01:44:52;15.90;;;7.68;;
43580;SDS011;29175;51.030;4.606;2023-06-14T01:47:19;21.98;;;8.10;;
43580;SDS011;29175;51.030;4.606;2023-06-14T01:49:46;17.38;;;9.05;;
43580;SDS011;29175;51.030;4.606;2023-06-14T01:52:12;21.17;;;9.27;;
43580;SDS011;29175;51.030;4.606;2023-06-14T01:54:38;19.30;;;8.18;;
43580;SDS011;29175;51.030;4.606;2023-06-14T01:57:08;14.55;;;8.30;;
43580;SDS011;29175;51.030;4.606;2023-06-14T01:59:34;22.42;;;8.68;;
43580;SDS011;29175;51.030;4.606;2023-06-14T02:02:01;20.90;;;9.32;;
43580;SDS011;29175;51.030;4.606;2023-06-14T02:04:29;23.80;;;9.15;;
43580;SDS011;29175;51.030;4.606;2023-06-14T02:06:55;18.08;;;8.73;;
43580;SDS011;29175;51.030;4.606;2023-06-14T02:09:20;20.63;;;9.35;;
43580;SDS011;29175;51.030;4.606;2023-06-14T02:11:46;19.92;;;8.73;;
43580;SDS011;29175;51.030;4.606;2023-06-14T02:14:11;19.60;;;9.05;;
43580;SDS011;29175;51.030;4.606;2023-06-14T02:16:37;19.52;;;8.88;;
43580;SDS011;29175;51.030;4.606;2023-06-14T02:19:04;16.88;;;8.55;;
43580;SDS011;29175;51.030;4.606;2023-06-14T02:21:31;21.20;;;9.32;;
43580;SDS011;29175;51.030;4.606;2023-06-14T02:23:57;16.27;;;8.80;;
43580;SDS011;29175;51.030;4.606;2023-06-14T02:26:23;18.25;;;9.10;;
43580;SDS011;29175;51.030;4.606;2023-06-14T02:28:49;18.73;;;9.27;;
43580;SDS011;29175;51.030;4.606;2023-06-14T02:31:14;19.70;;;9.20;;
43580;SDS011;29175;51.030;4.606;2023-06-14T02:33:41;15.73;;;8.77;;
43580;SDS011;29175;51.030;4.606;2023-06-14T02:36:07;15.00;;;8.35;;
43580;SDS011;29175;51.030;4.606;2023-06-14T02:38:32;18.55;;;9.20;;
43580;SDS011;29175;51.030;4.606;2023-06-14T02:40:58;18.80;;;9.40;;
43580;SDS011;29175;51.030;4.606;2023-06-14T02:43:25;21.00;;;8.65;;
43580;SDS011;29175;51.030;4.606;2023-06-14T02:45:51;17.88;;;9.38;;
43580;SDS011;29175;51.030;4.606;2023-06-14T02:48:17;21.73;;;9.05;;
43580;SDS011;29175;51.030;4.606;2023-06-14T02:50:42;23.17;;;9.80;;
43580;SDS011;29175;51.030;4.606;2023-06-14T02:53:08;17.58;;;8.65;;
43580;SDS011;29175;51.030;4.606;2023-06-14T02:55:34;18.80;;;8.57;;
43580;SDS011;29175;51.030;4.606;2023-06-14T02:58:04;18.58;;;9.27;;
43580;SDS011;29175;51.030;4.606;2023-06-14T03:00:30;18.90;;;9.27;;
43580;SDS011;29175;51.030;4.606;2023-06-14T03:02:56;19.83;;;8.68;;
43580;SDS011;29175;51.030;4.606;2023-06-14T03:05:22;16.60;;;8.30;;
43580;SDS011;29175;51.030;4.606;2023-06-14T03:07:49;18.48;;;9.15;;
43580;SDS011;29175;51.030;4.606;2023-06-14T03:10:15;16.92;;;8.15;;
43580;SDS011;29175;51.030;4.606;2023-06-14T03:12:42;19.00;;;8.30;;
43580;SDS011;29175;51.030;4.606;2023-06-14T03:15:07;16.35;;;7.90;;
43580;SDS011;29175;51.030;4.606;2023-06-14T03:17:34;20.55;;;9.38;;
43580;SDS011;29175;51.030;4.606;2023-06-14T03:20:00;15.23;;;7.88;;
43580;SDS011;29175;51.030;4.606;2023-06-14T03:22:27;16.92;;;8.32;;
43580;SDS011;29175;51.030;4.606;2023-06-14T03:24:53;17.75;;;8.70;;
43580;SDS011;29175;51.030;4.606;2023-06-14T03:27:20;17.17;;;8.48;;
43580;SDS011;29175;51.030;4.606;2023-06-14T03:29:45;21.13;;;8.85;;
43580;SDS011;29175;51.030;4.606;2023-06-14T03:32:11;18.65;;;8.18;;
43580;SDS011;29175;51.030;4.606;2023-06-14T03:34:37;16.85;;;8.75;;
43580;SDS011;29175;51.030;4.606;2023-06-14T03:37:06;17.38;;;8.48;;
43580;SDS011;29175;51.030;4.606;2023-06-14T03:39:32;17.70;;;9.02;;
43580;SDS011;29175;51.030;4.606;2023-06-14T03:41:58;17.73;;;8.13;;
43580;SDS011;29175;51.030;4.606;2023-06-14T03:44:23;19.33;;;8.43;;
43580;SDS011;29175;51.030;4.606;2023-06-14T03:46:51;17.08;;;8.82;;
43580;SDS011;29175;51.030;4.606;2023-06-14T03:49:17;19.55;;;8.27;;
43580;SDS011;29175;51.030;4.606;2023-06-14T03:51:43;22.63;;;8.85;;
43580;SDS011;29175;51.030;4.606;2023-06-14T03:54:08;17.23;;;8.50;;
43580;SDS011;29175;51.030;4.606;2023-06-14T03:56:34;18.23;;;8.70;;
43580;SDS011;29175;51.030;4.606;2023-06-14T03:59:01;15.73;;;7.53;;
43580;SDS011;29175;51.030;4.606;2023-06-14T04:01:27;18.02;;;8.10;;
43580;SDS011;29175;51.030;4.606;2023-06-14T04:03:55;16.67;;;8.30;;
43580;SDS011;29175;51.030;4.606;2023-06-14T04:06:22;12.70;;;7.07;;
43580;SDS011;29175;51.030;4.606;2023-06-14T04:08:49;16.42;;;8.23;;
43580;SDS011;29175;51.030;4.606;2023-06-14T04:11:16;16.85;;;7.90;;
43580;SDS011;29175;51.030;4.606;2023-06-14T04:13:41;15.77;;;7.88;;
43580;SDS011;29175;51.030;4.606;2023-06-14T04:16:07;19.77;;;8.07;;
43580;SDS011;29175;51.030;4.606;2023-06-14T04:18:33;17.15;;;7.82;;
43580;SDS011;29175;51.030;4.606;2023-06-14T04:20:58;17.08;;;7.45;;
43580;SDS011;29175;51.030;4.606;2023-06-14T04:23:25;14.50;;;7.20;;
43580;SDS011;29175;51.030;4.606;2023-06-14T04:25:53;17.02;;;8.23;;
43580;SDS011;29175;51.030;4.606;2023-06-14T04:28:19;18.63;;;7.85;;
43580;SDS011;29175;51.030;4.606;2023-06-14T04:30:45;16.73;;;7.88;;
43580;SDS011;29175;51.030;4.606;2023-06-14T04:33:12;18.60;;;7.90;;
43580;SDS011;29175;51.030;4.606;2023-06-14T04:35:38;18.73;;;7.03;;
43580;SDS011;29175;51.030;4.606;2023-06-14T04:38:05;16.33;;;7.78;;
43580;SDS011;29175;51.030;4.606;2023-06-14T04:40:34;20.73;;;8.02;;
43580;SDS011;29175;51.030;4.606;2023-06-14T04:43:07;18.88;;;8.20;;
43580;SDS011;29175;51.030;4.606;2023-06-14T04:45:34;17.10;;;8.30;;
43580;SDS011;29175;51.030;4.606;2023-06-14T04:48:02;16.02;;;7.82;;
43580;SDS011;29175;51.030;4.606;2023-06-14T04:50:27;17.73;;;8.35;;
43580;SDS011;29175;51.030;4.606;2023-06-14T04:52:57;15.07;;;7.53;;
43580;SDS011;29175;51.030;4.606;2023-06-14T04:55:24;17.70;;;7.40;;
43580;SDS011;29175;51.030;4.606;2023-06-14T04:57:51;13.32;;;7.50;;
43580;SDS011;29175;51.030;4.606;2023-06-14T05:00:19;18.08;;;7.47;;
43580;SDS011;29175;51.030;4.606;2023-06-14T05:02:45;18.02;;;7.43;;
43580;SDS011;29175;51.030;4.606;2023-06-14T05:05:12;24.60;;;7.97;;
43580;SDS011;29175;51.030;4.606;2023-06-14T05:07:37;12.02;;;7.13;;
43580;SDS011;29175;51.030;4.606;2023-06-14T05:10:04;17.98;;;8.27;;
43580;SDS011;29175;51.030;4.606;2023-06-14T05:12:31;13.65;;;7.30;;
43580;SDS011;29175;51.030;4.606;2023-06-14T05:14:56;21.60;;;8.55;;
43580;SDS011;29175;51.030;4.606;2023-06-14T05:17:23;21.92;;;7.97;;
43580;SDS011;29175;51.030;4.606;2023-06-14T05:19:49;18.38;;;8.27;;
43580;SDS011;29175;51.030;4.606;2023-06-14T05:22:15;20.70;;;8.95;;
43580;SDS011;29175;51.030;4.606;2023-06-14T05:24:41;18.60;;;8.43;;
43580;SDS011;29175;51.030;4.606;2023-06-14T05:27:07;15.00;;;7.97;;
43580;SDS011;29175;51.030;4.606;2023-06-14T05:29:33;19.80;;;7.95;;
43580;SDS011;29175;51.030;4.606;2023-06-14T05:31:59;19.40;;;7.80;;
43580;SDS011;29175;51.030;4.606;2023-06-14T05:34:25;18.35;;;7.55;;
43580;SDS011;29175;51.030;4.606;2023-06-14T05:36:50;23.23;;;8.85;;
43580;SDS011;29175;51.030;4.606;2023-06-14T05:39:16;18.45;;;7.75;;
43580;SDS011;29175;51.030;4.606;2023-06-14T05:41:42;21.05;;;8.60;;
43580;SDS011;29175;51.030;4.606;2023-06-14T05:44:08;21.13;;;9.00;;
43580;SDS011;29175;51.030;4.606;2023-06-14T05:46:34;14.20;;;7.10;;
43580;SDS011;29175;51.030;4.606;2023-06-14T05:49:00;15.95;;;8.70;;
43580;SDS011;29175;51.030;4.606;2023-06-14T05:51:25;21.70;;;8.90;;
43580;SDS011;29175;51.030;4.606;2023-06-14T05:53:51;20.05;;;8.98;;
43580;SDS011;29175;51.030;4.606;2023-06-14T05:56:17;15.25;;;7.38;;
43580;SDS011;29175;51.030;4.606;2023-06-14T05:58:43;18.52;;;8.63;;
43580;SDS011;29175;51.030;4.606;2023-06-14T06:01:10;20.23;;;8.68;;
43580;SDS011;29175;51.030;4.606;2023-06-14T06:03:36;19.40;;;8.95;;
43580;SDS011;29175;51.030;4.606;2023-06-14T06:06:02;21.10;;;8.77;;
43580;SDS011;29175;51.030;4.606;2023-06-14T06:08:28;18.88;;;9.30;;
43580;SDS011;29175;51.030;4.606;2023-06-14T06:10:54;30.67;;;9.40;;
43580;SDS011;29175;51.030;4.606;2023-06-14T06:13:21;24.85;;;8.77;;
43580;SDS011;29175;51.030;4.606;2023-06-14T06:15:46;19.80;;;8.77;;
43580;SDS011;29175;51.030;4.606;2023-06-14T06:18:12;20.65;;;8.80;;
43580;SDS011;29175;51.030;4.606;2023-06-14T06:20:38;24.40;;;7.82;;
43580;SDS011;29175;51.030;4.606;2023-06-14T06:23:03;21.00;;;9.00;;
43580;SDS011;29175;51.030;4.606;2023-06-14T06:25:29;22.15;;;8.38;;
43580;SDS011;29175;51.030;4.606;2023-06-14T06:27:56;21.30;;;8.70;;
43580;SDS011;29175;51.030;4.606;2023-06-14T06:30:22;24.27;;;8.30;;
43580;SDS011;29175;51.030;4.606;2023-06-14T06:32:48;23.27;;;8.70;;
43580;SDS011;29175;51.030;4.606;2023-06-14T06:35:14;17.52;;;8.15;;
43580;SDS011;29175;51.030;4.606;2023-06-14T06:37:41;19.50;;;7.97;;
43580;SDS011;29175;51.030;4.606;2023-06-14T06:40:07;16.48;;;7.93;;
43580;SDS011;29175;51.030;4.606;2023-06-14T06:42:33;15.32;;;7.10;;
43580;SDS011;29175;51.030;4.606;2023-06-14T06:44:59;25.63;;;8.50;;
43580;SDS011;29175;51.030;4.606;2023-06-14T06:47:25;20.70;;;7.97;;
43580;SDS011;29175;51.030;4.606;2023-06-14T06:49:51;14.75;;;7.85;;
43580;SDS011;29175;51.030;4.606;2023-06-14T06:52:17;21.67;;;7.45;;
43580;SDS011;29175;51.030;4.606;2023-06-14T06:54:42;20.92;;;7.78;;
43580;SDS011;29175;51.030;4.606;2023-06-14T06:57:08;32.00;;;8.90;;
43580;SDS011;29175;51.030;4.606;2023-06-14T06:59:35;27.45;;;7.35;;
43580;SDS011;29175;51.030;4.606;2023-06-14T07:02:02;31.02;;;8.13;;
43580;SDS011;29175;51.030;4.606;2023-06-14T07:04:28;17.60;;;6.97;;
43580;SDS011;29175;51.030;4.606;2023-06-14T07:06:53;18.58;;;6.78;;
43580;SDS011;29175;51.030;4.606;2023-06-14T07:09:19;23.33;;;7.75;;
43580;SDS011;29175;51.030;4.606;2023-06-14T07:11:46;22.30;;;7.88;;
43580;SDS011;29175;51.030;4.606;2023-06-14T07:14:12;17.67;;;7.53;;
43580;SDS011;29175;51.030;4.606;2023-06-14T07:16:38;19.55;;;7.65;;
43580;SDS011;29175;51.030;4.606;2023-06-14T07:19:04;16.05;;;6.90;;
43580;SDS011;29175;51.030;4.606;2023-06-14T07:21:30;17.08;;;6.80;;
43580;SDS011;29175;51.030;4.606;2023-06-14T07:23:56;12.68;;;6.60;;
43580;SDS011;29175;51.030;4.606;2023-06-14T07:26:22;16.60;;;7.30;;
43580;SDS011;29175;51.030;4.606;2023-06-14T07:28:48;24.80;;;7.00;;
43580;SDS011;29175;51.030;4.606;2023-06-14T07:31:14;15.32;;;6.43;;
43580;SDS011;29175;51.030;4.606;2023-06-14T07:33:41;17.10;;;7.20;;
43580;SDS011;29175;51.030;4.606;2023-06-14T07:36:07;14.55;;;6.53;;
43580;SDS011;29175;51.030;4.606;2023-06-14T07:38:33;16.58;;;6.65;;
43580;SDS011;29175;51.030;4.606;2023-06-14T07:41:00;15.48;;;6.43;;
43580;SDS011;29175;51.030;4.606;2023-06-14T07:43:26;15.23;;;6.35;;
43580;SDS011;29175;51.030;4.606;2023-06-14T07:45:52;14.45;;;6.78;;
43580;SDS011;29175;51.030;4.606;2023-06-14T07:48:18;14.82;;;6.70;;
43580;SDS011;29175;51.030;4.606;2023-06-14T07:50:44;15.82;;;6.22;;
43580;SDS011;29175;51.030;4.606;2023-06-14T07:53:10;19.45;;;6.82;;
43580;SDS011;29175;51.030;4.606;2023-06-14T07:55:35;17.45;;;7.22;;
43580;SDS011;29175;51.030;4.606;2023-06-14T07:58:05;12.93;;;6.50;;
43580;SDS011;29175;51.030;4.606;2023-06-14T08:00:31;15.02;;;6.90;;
43580;SDS011;29175;51.030;4.606;2023-06-14T08:02:57;16.33;;;6.85;;
43580;SDS011;29175;51.030;4.606;2023-06-14T08:05:26;14.88;;;7.18;;
43580;SDS011;29175;51.030;4.606;2023-06-14T08:07:52;20.27;;;7.40;;
43580;SDS011;29175;51.030;4.606;2023-06-14T08:10:19;13.40;;;6.97;;
43580;SDS011;29175;51.030;4.606;2023-06-14T08:12:45;20.00;;;6.82;;
43580;SDS011;29175;51.030;4.606;2023-06-14T08:15:11;14.73;;;7.03;;
43580;SDS011;29175;51.030;4.606;2023-06-14T08:17:37;17.05;;;6.57;;
43580;SDS011;29175;51.030;4.606;2023-06-14T08:20:03;23.25;;;6.72;;
43580;SDS011;29175;51.030;4.606;2023-06-14T08:22:30;18.33;;;7.20;;
43580;SDS011;29175;51.030;4.606;2023-06-14T08:24:59;17.73;;;6.70;;
43580;SDS011;29175;51.030;4.606;2023-06-14T08:27:26;15.65;;;6.65;;
43580;SDS011;29175;51.030;4.606;2023-06-14T08:29:52;19.00;;;6.88;;
43580;SDS011;29175;51.030;4.606;2023-06-14T08:32:18;15.90;;;5.90;;
43580;SDS011;29175;51.030;4.606;2023-06-14T08:34:44;17.60;;;5.93;;
43580;SDS011;29175;51.030;4.606;2023-06-14T08:37:10;10.13;;;5.45;;
43580;SDS011;29175;51.030;4.606;2023-06-14T08:39:35;17.77;;;7.18;;
43580;SDS011;29175;51.030;4.606;2023-06-14T08:42:02;13.40;;;6.10;;
43580;SDS011;29175;51.030;4.606;2023-06-14T08:44:28;12.57;;;6.43;;
43580;SDS011;29175;51.030;4.606;2023-06-14T08:46:58;14.05;;;5.85;;
43580;SDS011;29175;51.030;4.606;2023-06-14T08:49:25;18.98;;;6.43;;
43580;SDS011;29175;51.030;4.606;2023-06-14T08:51:59;15.43;;;6.80;;
43580;SDS011;29175;51.030;4.606;2023-06-14T08:54:27;15.40;;;6.25;;
43580;SDS011;29175;51.030;4.606;2023-06-14T08:56:57;12.10;;;5.88;;
43580;SDS011;29175;51.030;4.606;2023-06-14T08:59:26;13.20;;;5.80;;
43580;SDS011;29175;51.030;4.606;2023-06-14T09:01:53;16.52;;;6.40;;
43580;SDS011;29175;51.030;4.606;2023-06-14T09:04:23;14.50;;;5.85;;
43580;SDS011;29175;51.030;4.606;2023-06-14T09:06:54;14.77;;;5.95;;
43580;SDS011;29175;51.030;4.606;2023-06-14T09:09:21;16.23;;;5.47;;
43580;SDS011;29175;51.030;4.606;2023-06-14T09:11:51;18.23;;;5.82;;
43580;SDS011;29175;51.030;4.606;2023-06-14T09:14:20;15.75;;;5.57;;
43580;SDS011;29175;51.030;4.606;2023-06-14T09:16:46;19.75;;;5.70;;
43580;SDS011;29175;51.030;4.606;2023-06-14T09:19:22;14.95;;;6.07;;
43580;SDS011;29175;51.030;4.606;2023-06-14T09:21:50;16.70;;;6.10;;
43580;SDS011;29175;51.030;4.606;2023-06-14T09:24:17;13.73;;;6.20;;
43580;SDS011;29175;51.030;4.606;2023-06-14T09:26:46;15.75;;;5.60;;
43580;SDS011;29175;51.030;4.606;2023-06-14T09:29:12;17.33;;;5.70;;
43580;SDS011;29175;51.030;4.606;2023-06-14T09:31:38;16.58;;;6.25;;
43580;SDS011;29175;51.030;4.606;2023-06-14T09:34:04;13.52;;;5.63;;
43580;SDS011;29175;51.030;4.606;2023-06-14T09:36:31;16.88;;;5.45;;
43580;SDS011;29175;51.030;4.606;2023-06-14T09:38:57;15.80;;;5.35;;
43580;SDS011;29175;51.030;4.606;2023-06-14T09:41:32;15.85;;;6.10;;
43580;SDS011;29175;51.030;4.606;2023-06-14T09:44:00;12.40;;;4.85;;
43580;SDS011;29175;51.030;4.606;2023-06-14T09:46:27;14.00;;;5.05;;
43580;SDS011;29175;51.030;4.606;2023-06-14T09:48:56;12.80;;;4.90;;
43580;SDS011;29175;51.030;4.606;2023-06-14T09:51:22;9.52;;;4.93;;
43580;SDS011;29175;51.030;4.606;2023-06-14T09:53:49;13.52;;;5.15;;
43580;SDS011;29175;51.030;4.606;2023-06-14T09:56:17;12.70;;;4.90;;
43580;SDS011;29175;51.030;4.606;2023-06-14T09:58:47;15.18;;;5.30;;
43580;SDS011;29175;51.030;4.606;2023-06-14T10:01:15;13.15;;;5.35;;
43580;SDS011;29175;51.030;4.606;2023-06-14T10:03:43;14.97;;;4.53;;
43580;SDS011;29175;51.030;4.606;2023-06-14T10:06:10;11.77;;;5.10;;
43580;SDS011;29175;51.030;4.606;2023-06-14T10:08:36;11.27;;;4.45;;
43580;SDS011;29175;51.030;4.606;2023-06-14T10:11:03;11.52;;;4.65;;
43580;SDS011;29175;51.030;4.606;2023-06-14T10:13:31;9.48;;;4.50;;
43580;SDS011;29175;51.030;4.606;2023-06-14T10:16:06;10.25;;;4.65;;
43580;SDS011;29175;51.030;4.606;2023-06-14T10:18:49;13.82;;;4.50;;
43580;SDS011;29175;51.030;4.606;2023-06-14T10:21:46;13.15;;;4.57;;
43580;SDS011;29175;51.030;4.606;2023-06-14T10:24:23;7.72;;;4.20;;
43580;SDS011;29175;51.030;4.606;2023-06-14T10:26:57;10.88;;;4.28;;
43580;SDS011;29175;51.030;4.606;2023-06-14T10:29:24;7.17;;;3.83;;
43580;SDS011;29175;51.030;4.606;2023-06-14T10:31:50;9.02;;;3.90;;
43580;SDS011;29175;51.030;4.606;2023-06-14T10:34:27;12.48;;;3.95;;
43580;SDS011;29175;51.030;4.606;2023-06-14T10:37:07;10.30;;;4.00;;
43580;SDS011;29175;51.030;4.606;2023-06-14T10:39:40;9.65;;;3.92;;
43580;SDS011;29175;51.030;4.606;2023-06-14T10:42:07;10.25;;;4.15;;
43580;SDS011;29175;51.030;4.606;2023-06-14T10:44:34;8.88;;;4.20;;
43580;SDS011;29175;51.030;4.606;2023-06-14T10:47:07;18.05;;;4.18;;
43580;SDS011;29175;51.030;4.606;2023-06-14T10:49:36;10.80;;;3.92;;
43580;SDS011;29175;51.030;4.606;2023-06-14T10:52:11;12.60;;;4.53;;
43580;SDS011;29175;51.030;4.606;2023-06-14T10:57:35;8.57;;;4.03;;
43580;SDS011;29175;51.030;4.606;2023-06-14T11:00:02;9.15;;;3.97;;
43580;SDS011;29175;51.030;4.606;2023-06-14T11:02:48;8.88;;;4.00;;
43580;SDS011;29175;51.030;4.606;2023-06-14T11:05:53;8.85;;;4.10;;
43580;SDS011;29175;51.030;4.606;2023-06-14T11:11:07;8.57;;;3.80;;
43580;SDS011;29175;51.030;4.606;2023-06-14T11:13:34;11.18;;;4.30;;
43580;SDS011;29175;51.030;4.606;2023-06-14T11:16:03;24.20;;;4.07;;
43580;SDS011;29175;51.030;4.606;2023-06-14T11:18:36;6.70;;;4.05;;
43580;SDS011;29175;51.030;4.606;2023-06-14T11:21:02;12.02;;;3.83;;
43580;SDS011;29175;51.030;4.606;2023-06-14T11:23:28;9.55;;;4.13;;
43580;SDS011;29175;51.030;4.606;2023-06-14T11:25:54;9.68;;;4.15;;
43580;SDS011;29175;51.030;4.606;2023-06-14T11:28:20;11.40;;;3.97;;
43580;SDS011;29175;51.030;4.606;2023-06-14T11:30:47;10.23;;;4.25;;
43580;SDS011;29175;51.030;4.606;2023-06-14T11:33:17;12.68;;;4.00;;
43580;SDS011;29175;51.030;4.606;2023-06-14T11:35:45;8.60;;;3.35;;
43580;SDS011;29175;51.030;4.606;2023-06-14T11:38:11;6.78;;;3.70;;
43580;SDS011;29175;51.030;4.606;2023-06-14T11:40:38;12.45;;;4.18;;
43580;SDS011;29175;51.030;4.606;2023-06-14T11:43:04;10.10;;;3.95;;
43580;SDS011;29175;51.030;4.606;2023-06-14T11:45:29;10.80;;;3.55;;
43580;SDS011;29175;51.030;4.606;2023-06-14T11:47:56;9.20;;;4.15;;
43580;SDS011;29175;51.030;4.606;2023-06-14T11:50:23;9.10;;;3.95;;
43580;SDS011;29175;51.030;4.606;2023-06-14T11:52:53;8.70;;;3.55;;
43580;SDS011;29175;51.030;4.606;2023-06-14T11:55:20;14.15;;;3.70;;
43580;SDS011;29175;51.030;4.606;2023-06-14T11:57:46;9.65;;;3.60;;
43580;SDS011;29175;51.030;4.606;2023-06-14T12:00:12;7.93;;;3.25;;
43580;SDS011;29175;51.030;4.606;2023-06-14T12:02:40;14.77;;;3.88;;
43580;SDS011;29175;51.030;4.606;2023-06-14T12:05:07;7.70;;;3.78;;
43580;SDS011;29175;51.030;4.606;2023-06-14T12:07:36;10.30;;;3.85;;
43580;SDS011;29175;51.030;4.606;2023-06-14T12:14:59;6.88;;;3.40;;
43580;SDS011;29175;51.030;4.606;2023-06-14T12:17:31;8.30;;;3.67;;
43580;SDS011;29175;51.030;4.606;2023-06-14T12:20:11;11.70;;;3.17;;
43580;SDS011;29175;51.030;4.606;2023-06-14T12:22:54;8.23;;;3.50;;
43580;SDS011;29175;51.030;4.606;2023-06-14T12:25:28;10.68;;;3.58;;
43580;SDS011;29175;51.030;4.606;2023-06-14T12:28:00;8.40;;;3.38;;
43580;SDS011;29175;51.030;4.606;2023-06-14T12:30:31;12.43;;;4.57;;
43580;SDS011;29175;51.030;4.606;2023-06-14T12:32:56;9.63;;;3.25;;
43580;SDS011;29175;51.030;4.606;2023-06-14T12:35:22;6.13;;;3.08;;
43580;SDS011;29175;51.030;4.606;2023-06-14T12:37:48;12.10;;;3.13;;
43580;SDS011;29175;51.030;4.606;2023-06-14T12:40:13;8.30;;;3.13;;
43580;SDS011;29175;51.030;4.606;2023-06-14T12:42:40;5.40;;;2.97;;
43580;SDS011;29175;51.030;4.606;2023-06-14T12:45:06;7.70;;;2.90;;
43580;SDS011;29175;51.030;4.606;2023-06-14T12:47:32;7.32;;;3.25;;
43580;SDS011;29175;51.030;4.606;2023-06-14T12:49:57;9.85;;;3.10;;
43580;SDS011;29175;51.030;4.606;2023-06-14T12:52:23;10.65;;;2.90;;
43580;SDS011;29175;51.030;4.606;2023-06-14T12:54:49;7.07;;;2.38;;
43580;SDS011;29175;51.030;4.606;2023-06-14T12:57:15;7.75;;;2.97;;
43580;SDS011;29175;51.030;4.606;2023-06-14T12:59:40;9.30;;;2.78;;
43580;SDS011;29175;51.030;4.606;2023-06-14T13:02:13;6.55;;;2.65;;
43580;SDS011;29175;51.030;4.606;2023-06-14T13:04:40;6.35;;;2.25;;
43580;SDS011;29175;51.030;4.606;2023-06-14T13:07:05;6.07;;;2.65;;
43580;SDS011;29175;51.030;4.606;2023-06-14T13:09:31;9.30;;;2.45;;
43580;SDS011;29175;51.030;4.606;2023-06-14T13:11:57;15.60;;;2.53;;
43580;SDS011;29175;51.030;4.606;2023-06-14T13:14:23;6.68;;;2.00;;
43580;SDS011;29175;51.030;4.606;2023-06-14T13:16:48;8.55;;;2.35;;
43580;SDS011;29175;51.030;4.606;2023-06-14T13:19:14;5.10;;;2.30;;
43580;SDS011;29175;51.030;4.606;2023-06-14T13:21:40;7.80;;;1.83;;
43580;SDS011;29175;51.030;4.606;2023-06-14T13:24:05;7.05;;;2.05;;
43580;SDS011;29175;51.030;4.606;2023-06-14T13:26:32;3.63;;;1.90;;
43580;SDS011;29175;51.030;4.606;2023-06-14T13:28:58;6.47;;;1.77;;
43580;SDS011;29175;51.030;4.606;2023-06-14T13:31:24;12.05;;;2.17;;
43580;SDS011;29175;51.030;4.606;2023-06-14T13:33:49;8.43;;;2.13;;
43580;SDS011;29175;51.030;4.606;2023-06-14T13:36:15;4.22;;;1.67;;
43580;SDS011;29175;51.030;4.606;2023-06-14T13:38:41;4.78;;;2.05;;
43580;SDS011;29175;51.030;4.606;2023-06-14T13:41:07;10.35;;;2.08;;
43580;SDS011;29175;51.030;4.606;2023-06-14T13:43:33;4.63;;;1.70;;
43580;SDS011;29175;51.030;4.606;2023-06-14T13:45:58;3.00;;;1.55;;
43580;SDS011;29175;51.030;4.606;2023-06-14T13:48:24;5.57;;;1.83;;
43580;SDS011;29175;51.030;4.606;2023-06-14T13:50:50;6.10;;;1.65;;
43580;SDS011;29175;51.030;4.606;2023-06-14T13:53:15;5.78;;;1.85;;
43580;SDS011;29175;51.030;4.606;2023-06-14T13:55:41;6.65;;;1.75;;
43580;SDS011;29175;51.030;4.606;2023-06-14T13:58:07;2.25;;;1.63;;
43580;SDS011;29175;51.030;4.606;2023-06-14T14:00:32;2.88;;;1.83;;
43580;SDS011;29175;51.030;4.606;2023-06-14T14:03:02;4.93;;;1.98;;
43580;SDS011;29175;51.030;4.606;2023-06-14T14:05:28;4.30;;;2.00;;
43580;SDS011;29175;51.030;4.606;2023-06-14T14:07:55;7.00;;;2.40;;
43580;SDS011;29175;51.030;4.606;2023-06-14T14:10:22;4.10;;;1.65;;
43580;SDS011;29175;51.030;4.606;2023-06-14T14:12:49;5.90;;;1.98;;
43580;SDS011;29175;51.030;4.606;2023-06-14T14:15:16;4.68;;;2.08;;
43580;SDS011;29175;51.030;4.606;2023-06-14T14:17:42;4.10;;;1.98;;
43580;SDS011;29175;51.030;4.606;2023-06-14T14:20:08;7.05;;;2.22;;
43580;SDS011;29175;51.030;4.606;2023-06-14T14:22:34;5.80;;;2.17;;
43580;SDS011;29175;51.030;4.606;2023-06-14T14:25:00;3.78;;;1.85;;
43580;SDS011;29175;51.030;4.606;2023-06-14T14:27:26;9.88;;;2.47;;
43580;SDS011;29175;51.030;4.606;2023-06-14T14:29:51;6.88;;;2.20;;
43580;SDS011;29175;51.030;4.606;2023-06-14T14:32:17;5.13;;;2.05;;
43580;SDS011;29175;51.030;4.606;2023-06-14T14:34:43;10.30;;;1.98;;
43580;SDS011;29175;51.030;4.606;2023-06-14T14:37:08;3.45;;;1.70;;
43580;SDS011;29175;51.030;4.606;2023-06-14T14:39:34;6.55;;;2.05;;
43580;SDS011;29175;51.030;4.606;2023-06-14T14:42:01;4.60;;;2.05;;
43580;SDS011;29175;51.030;4.606;2023-06-14T14:44:27;7.63;;;2.35;;
43580;SDS011;29175;51.030;4.606;2023-06-14T14:46:53;5.60;;;2.22;;
43580;SDS011;29175;51.030;4.606;2023-06-14T14:49:20;7.28;;;2.40;;
43580;SDS011;29175;51.030;4.606;2023-06-14T14:51:45;7.97;;;2.45;;